createdAt,value
2023-02-07T00:00:16.031Z,2.74
2023-02-07T00:02:43.584Z,2.63
2023-02-07T00:05:10.521Z,2.67
2023-02-07T00:07:37.446Z,2.74
2023-02-07T00:10:05.034Z,2.64
2023-02-07T00:12:33.162Z,2.75
2023-02-07T00:14:59.914Z,2.81
2023-02-07T00:17:28.969Z,2.63
2023-02-07T00:19:55.663Z,2.47
2023-02-07T00:22:22.517Z,2.42
2023-02-07T00:24:50.131Z,2.37
2023-02-07T00:27:16.922Z,2.52
2023-02-07T00:29:44.137Z,2.61
2023-02-07T00:32:10.661Z,2.88
2023-02-07T00:34:37.396Z,2.88
2023-02-07T00:37:05.080Z,2.71
2023-02-07T00:39:31.892Z,2.52
2023-02-07T00:41:58.221Z,2.42
2023-02-07T00:44:24.939Z,2.34
2023-02-07T00:46:51.580Z,2.49
2023-02-07T00:49:18.100Z,2.40
2023-02-07T00:51:44.506Z,2.28
2023-02-07T00:54:11.268Z,2.53
2023-02-07T00:56:37.984Z,2.42
2023-02-07T00:59:10.717Z,2.24
2023-02-07T01:01:38.245Z,2.37
2023-02-07T01:04:05.432Z,2.33
2023-02-07T01:06:34.227Z,2.28
2023-02-07T01:09:01.639Z,2.41
2023-02-07T01:11:28.846Z,2.33
2023-02-07T01:13:55.227Z,2.47
2023-02-07T01:16:28.115Z,2.36
2023-02-07T01:18:54.514Z,2.35
2023-02-07T01:21:24.580Z,2.44
2023-02-07T01:23:51.007Z,2.31
2023-02-07T01:26:18.017Z,2.35
2023-02-07T01:28:44.527Z,2.43
2023-02-07T01:31:12.659Z,2.37
2023-02-07T01:33:39.545Z,2.41
2023-02-07T01:36:10.210Z,2.44
2023-02-07T01:38:36.988Z,2.45
2023-02-07T01:41:03.988Z,2.56
2023-02-07T01:43:31.038Z,2.57
2023-02-07T01:45:57.542Z,2.55
2023-02-07T01:48:27.475Z,2.49
2023-02-07T01:50:56.724Z,2.49
2023-02-07T01:53:25.379Z,2.50
2023-02-07T01:55:52.890Z,2.54
2023-02-07T01:58:19.485Z,2.40
2023-02-07T02:00:46.469Z,2.56
2023-02-07T02:03:13.424Z,2.49
2023-02-07T02:05:41.478Z,2.43
2023-02-07T02:08:08.456Z,2.52
2023-02-07T02:10:58.113Z,2.19
2023-02-07T02:13:40.661Z,2.40
2023-02-07T02:16:16.716Z,2.29
2023-02-07T02:18:59.919Z,2.20
2023-02-07T02:21:46.115Z,2.11
2023-02-07T02:24:24.594Z,2.14
2023-02-07T02:27:23.428Z,2.21
2023-02-07T02:29:49.878Z,2.09
2023-02-07T02:32:41.618Z,2.14
2023-02-07T02:35:07.917Z,2.08
2023-02-07T02:38:07.860Z,2.01
2023-02-07T02:40:37.269Z,2.08
2023-02-07T02:43:08.105Z,2.01
2023-02-07T02:45:43.947Z,1.88
2023-02-07T02:48:11.544Z,1.84
2023-02-07T02:50:38.971Z,2.04
2023-02-07T02:53:07.073Z,1.89
2023-02-07T02:55:42.528Z,1.90
2023-02-07T02:58:12.058Z,1.79
2023-02-07T03:00:44.431Z,1.76
2023-02-07T03:03:24.381Z,1.84
2023-02-07T03:05:57.927Z,1.93
2023-02-07T03:08:24.535Z,2.03
2023-02-07T03:10:57.520Z,1.95
2023-02-07T03:13:28.831Z,1.79
2023-02-07T03:16:13.366Z,1.96
2023-02-07T03:18:59.089Z,1.81
2023-02-07T03:21:30.299Z,1.93
2023-02-07T03:23:58.328Z,1.80
2023-02-07T03:26:25.537Z,1.86
2023-02-07T03:28:53.581Z,1.96
2023-02-07T03:31:21.585Z,1.95
2023-02-07T03:33:49.592Z,1.82
2023-02-07T03:36:24.667Z,1.93
2023-02-07T03:38:51.870Z,2.11
2023-02-07T03:41:28.822Z,1.98
2023-02-07T03:43:57.864Z,1.99
2023-02-07T03:46:26.066Z,2.03
2023-02-07T03:48:53.010Z,2.09
2023-02-07T03:51:19.637Z,2.21
2023-02-07T03:53:46.168Z,2.08
2023-02-07T03:56:12.620Z,2.14
2023-02-07T03:58:39.376Z,2.31
2023-02-07T04:01:06.291Z,2.35
2023-02-07T04:03:33.212Z,2.27
2023-02-07T04:06:01.541Z,2.27
2023-02-07T04:08:28.188Z,2.19
2023-02-07T04:11:02.072Z,2.16
2023-02-07T04:13:28.997Z,2.03
2023-02-07T04:15:56.009Z,2.08
2023-02-07T04:18:23.076Z,2.01
2023-02-07T04:20:50.143Z,2.03
2023-02-07T04:23:16.650Z,2.03
2023-02-07T04:25:43.233Z,2.08
2023-02-07T04:28:09.691Z,2.00
2023-02-07T04:30:36.227Z,1.88
2023-02-07T04:33:02.627Z,1.83
2023-02-07T04:35:29.374Z,1.93
2023-02-07T04:37:55.817Z,1.93
2023-02-07T04:40:22.607Z,2.08
2023-02-07T04:42:49.607Z,1.93
2023-02-07T04:45:15.992Z,1.82
2023-02-07T04:47:42.826Z,1.13
2023-02-07T04:50:09.363Z,1.62
2023-02-07T04:52:36.307Z,1.87
2023-02-07T04:55:03.738Z,1.96
2023-02-07T04:57:30.150Z,1.94
2023-02-07T04:59:56.783Z,1.98
2023-02-07T05:02:26.412Z,1.83
2023-02-07T05:04:52.823Z,1.64
2023-02-07T05:07:19.523Z,1.74
2023-02-07T05:09:46.162Z,1.64
2023-02-07T05:12:13.189Z,1.60
2023-02-07T05:14:39.554Z,1.51
2023-02-07T05:17:06.133Z,1.69
2023-02-07T05:19:34.036Z,1.36
2023-02-07T05:22:00.502Z,1.50
2023-02-07T05:24:27.211Z,1.21
2023-02-07T05:26:53.699Z,1.38
2023-02-07T05:29:20.256Z,1.23
2023-02-07T05:32:06.917Z,1.27
2023-02-07T05:34:33.446Z,1.14
2023-02-07T05:37:00.338Z,1.33
2023-02-07T05:39:27.744Z,1.11
2023-02-07T05:41:54.051Z,1.17
2023-02-07T05:44:21.346Z,1.05
2023-02-07T05:46:51.775Z,1.16
2023-02-07T05:49:19.199Z,0.99
2023-02-07T05:51:45.676Z,0.96
2023-02-07T05:54:12.143Z,0.94
2023-02-07T05:56:38.672Z,0.75
2023-02-07T05:59:05.279Z,0.70
2023-02-07T06:01:37.413Z,0.76
2023-02-07T06:04:04.397Z,0.86
2023-02-07T06:06:30.790Z,0.99
2023-02-07T06:08:58.459Z,1.01
2023-02-07T06:11:24.871Z,0.98
2023-02-07T06:13:54.465Z,0.87
2023-02-07T06:16:31.607Z,0.89
2023-02-07T06:18:58.091Z,0.92
2023-02-07T06:21:32.003Z,0.77
2023-02-07T06:24:04.389Z,0.94
2023-02-07T06:26:30.842Z,0.79
2023-02-07T06:28:57.268Z,0.60
2023-02-07T06:31:23.803Z,0.53
2023-02-07T06:33:50.297Z,0.41
2023-02-07T06:36:16.964Z,0.54
2023-02-07T06:38:43.461Z,0.64
2023-02-07T06:41:11.182Z,0.62
2023-02-07T06:43:38.470Z,0.81
2023-02-07T06:46:05.126Z,0.55
2023-02-07T06:48:31.733Z,0.46
2023-02-07T06:50:58.107Z,0.45
2023-02-07T06:53:24.645Z,0.60
2023-02-07T06:55:51.260Z,0.48
2023-02-07T06:58:17.691Z,0.60
2023-02-07T07:00:44.064Z,0.65
2023-02-07T07:03:14.883Z,0.60
2023-02-07T07:05:41.895Z,0.65
2023-02-07T07:08:08.987Z,0.90
2023-02-07T07:10:35.543Z,0.81
2023-02-07T07:13:02.138Z,0.70
2023-02-07T07:15:28.583Z,0.72
2023-02-07T07:17:54.933Z,0.91
2023-02-07T07:20:21.520Z,0.84
2023-02-07T07:22:48.617Z,0.97
2023-02-07T07:25:14.958Z,1.19
2023-02-07T07:27:41.963Z,1.27
2023-02-07T07:30:10.638Z,1.21
2023-02-07T07:32:37.361Z,1.29
2023-02-07T07:35:04.222Z,1.08
2023-02-07T07:37:31.168Z,1.06
2023-02-07T07:39:57.737Z,1.33
2023-02-07T07:42:24.315Z,1.56
2023-02-07T07:44:50.827Z,1.39
2023-02-07T07:47:18.990Z,1.45
2023-02-07T07:49:45.796Z,1.61
2023-02-07T07:52:12.187Z,1.77
2023-02-07T07:54:38.661Z,1.81
2023-02-07T07:57:05.164Z,2.11
2023-02-07T07:59:31.763Z,2.22
2023-02-07T08:01:58.988Z,2.24
2023-02-07T08:04:25.566Z,2.24
2023-02-07T08:06:51.978Z,2.28
2023-02-07T08:09:18.461Z,2.48
2023-02-07T08:11:44.876Z,2.58
2023-02-07T08:14:11.528Z,2.51
2023-02-07T08:16:38.348Z,2.62
2023-02-07T08:19:04.817Z,2.95
2023-02-07T08:21:32.085Z,2.98
2023-02-07T08:23:59.870Z,2.78
2023-02-07T08:26:26.558Z,3.28
2023-02-07T08:28:52.998Z,3.24
2023-02-07T08:31:20.530Z,3.32
2023-02-07T08:33:47.146Z,3.26
2023-02-07T08:36:13.647Z,3.33
2023-02-07T08:38:41.631Z,3.51
2023-02-07T08:41:11.569Z,3.63
2023-02-07T08:43:38.210Z,3.38
2023-02-07T08:46:05.322Z,3.68
2023-02-07T08:48:32.584Z,3.79
2023-02-07T08:51:04.460Z,3.83
2023-02-07T08:53:30.789Z,3.69
2023-02-07T08:55:57.245Z,3.51
2023-02-07T08:58:23.535Z,3.79
2023-02-07T09:00:49.845Z,3.64
2023-02-07T09:03:16.347Z,3.73
2023-02-07T09:05:42.846Z,3.70
2023-02-07T09:08:09.517Z,3.85
2023-02-07T09:10:36.135Z,4.26
2023-02-07T09:13:02.596Z,4.09
2023-02-07T09:15:28.947Z,4.23
2023-02-07T09:17:55.281Z,4.13
2023-02-07T09:20:22.012Z,3.80
2023-02-07T09:23:07.234Z,4.14
2023-02-07T09:25:33.612Z,4.25
2023-02-07T09:27:59.961Z,4.67
2023-02-07T09:30:26.532Z,4.55
2023-02-07T09:32:53.071Z,4.45
2023-02-07T09:35:19.822Z,4.44
2023-02-07T09:37:49.726Z,4.66
2023-02-07T09:40:20.964Z,4.16
2023-02-07T09:43:10.864Z,4.83
2023-02-07T09:45:39.986Z,4.95
2023-02-07T09:48:12.968Z,5.12
2023-02-07T09:50:45.738Z,5.27
2023-02-07T09:53:18.126Z,5.33
2023-02-07T09:55:50.530Z,5.38
2023-02-07T09:58:16.868Z,5.45
2023-02-07T10:00:45.431Z,5.19
2023-02-07T10:03:12.103Z,4.91
2023-02-07T10:05:49.711Z,5.41
2023-02-07T10:08:17.489Z,4.81
2023-02-07T10:10:46.429Z,4.67
2023-02-07T10:13:13.005Z,5.04
2023-02-07T10:15:52.003Z,5.31
2023-02-07T10:18:30.028Z,5.07
2023-02-07T10:20:59.437Z,4.93
2023-02-07T10:23:40.998Z,5.18
2023-02-07T10:26:27.662Z,5.25
2023-02-07T10:28:56.975Z,5.68
2023-02-07T10:31:25.017Z,5.19
2023-02-07T10:34:10.775Z,5.34
2023-02-07T10:36:39.020Z,5.51
2023-02-07T10:39:15.562Z,5.42
2023-02-07T10:41:44.981Z,5.58
2023-02-07T10:44:17.440Z,5.29
2023-02-07T10:46:46.320Z,5.58
2023-02-07T10:49:42.275Z,5.68
2023-02-07T10:52:14.798Z,5.71
2023-02-07T10:54:50.298Z,5.75
2023-02-07T10:57:18.640Z,5.65
2023-02-07T10:59:51.477Z,5.79
2023-02-07T11:02:34.488Z,5.81
2023-02-07T11:05:16.491Z,5.85
2023-02-07T11:08:02.067Z,5.61
2023-02-07T11:10:33.776Z,5.80
2023-02-07T11:13:04.950Z,5.51
2023-02-07T11:15:37.483Z,6.05
2023-02-07T11:18:04.942Z,5.58
2023-02-07T11:20:40.035Z,5.67
2023-02-07T11:23:14.366Z,5.39
2023-02-07T11:25:46.119Z,5.93
2023-02-07T11:28:22.228Z,5.71
2023-02-07T11:30:56.376Z,5.53
2023-02-07T11:33:25.718Z,5.58
2023-02-07T11:36:27.192Z,5.58
2023-02-07T11:38:58.632Z,6.28
2023-02-07T11:41:29.686Z,6.29
2023-02-07T11:44:04.416Z,6.11
2023-02-07T11:46:45.352Z,5.78
2023-02-07T11:49:40.517Z,6.20
2023-02-07T11:52:07.904Z,6.57
2023-02-07T11:54:35.479Z,6.59
2023-02-07T11:57:07.437Z,6.55
2023-02-07T11:59:34.810Z,6.86
2023-02-07T12:02:17.582Z,6.84
2023-02-07T12:04:48.041Z,6.68
2023-02-07T12:07:28.559Z,6.64
2023-02-07T12:09:57.611Z,6.83
2023-02-07T12:12:36.549Z,6.81
2023-02-07T12:15:16.129Z,7.19
2023-02-07T12:17:50.791Z,7.24
2023-02-07T12:20:23.609Z,7.31
2023-02-07T12:23:09.764Z,6.75
2023-02-07T12:25:48.663Z,6.83
2023-02-07T12:28:23.346Z,6.51
2023-02-07T12:30:52.072Z,6.61
2023-02-07T12:33:34.170Z,6.90
2023-02-07T12:36:19.652Z,7.32
2023-02-07T12:39:09.780Z,7.01
2023-02-07T12:42:03.797Z,6.88
2023-02-07T12:44:43.350Z,6.86
2023-02-07T12:47:20.854Z,6.99
2023-02-07T12:49:54.523Z,7.23
2023-02-07T12:52:39.795Z,7.22
2023-02-07T12:55:15.752Z,7.26
2023-02-07T12:58:04.500Z,7.73
2023-02-07T13:01:01.468Z,7.78
2023-02-07T13:03:49.529Z,8.35
2023-02-07T13:06:43.759Z,8.12
2023-02-07T13:09:16.688Z,8.40
2023-02-07T13:11:55.413Z,8.52
2023-02-07T13:14:37.728Z,8.35
2023-02-07T13:17:22.825Z,8.51
2023-02-07T13:19:57.021Z,8.58
2023-02-07T13:22:35.139Z,8.31
2023-02-07T13:25:07.081Z,8.45
2023-02-07T13:27:36.429Z,8.50
2023-02-07T13:30:06.445Z,8.59
2023-02-07T13:32:34.572Z,8.29
2023-02-07T13:35:07.821Z,8.41
2023-02-07T13:37:40.209Z,8.52
2023-02-07T13:40:25.593Z,8.86
2023-02-07T13:42:59.848Z,8.62
2023-02-07T13:45:46.324Z,8.45
2023-02-07T13:48:14.961Z,8.68
2023-02-07T13:50:48.515Z,8.40
2023-02-07T13:53:34.009Z,8.45
2023-02-07T13:56:02.837Z,8.50
2023-02-07T13:58:57.184Z,7.93
2023-02-07T14:01:26.484Z,8.77
2023-02-07T14:04:05.306Z,9.02
2023-02-07T14:06:34.577Z,8.99
2023-02-07T14:09:21.672Z,8.67
2023-02-07T14:11:51.436Z,8.37
2023-02-07T14:14:25.103Z,8.48
2023-02-07T14:16:53.351Z,8.49
2023-02-07T14:19:42.428Z,8.46
2023-02-07T14:22:18.725Z,8.55
2023-02-07T14:24:50.553Z,8.32
2023-02-07T14:27:26.391Z,8.13
2023-02-07T14:29:55.063Z,7.99
2023-02-07T14:32:31.607Z,8.35
2023-02-07T14:35:01.553Z,8.26
2023-02-07T14:37:39.259Z,7.85
2023-02-07T14:40:31.682Z,8.07
2023-02-07T14:43:02.036Z,7.70
2023-02-07T14:45:34.271Z,7.69
2023-02-07T14:48:23.985Z,7.76
2023-02-07T14:50:54.920Z,7.72
2023-02-07T14:53:22.051Z,7.55
2023-02-07T14:55:52.109Z,7.78
2023-02-07T14:58:26.879Z,7.90
2023-02-07T15:00:57.558Z,8.17
2023-02-07T15:03:24.681Z,8.00
2023-02-07T15:05:53.950Z,8.00
2023-02-07T15:08:21.774Z,7.94
2023-02-07T15:11:11.799Z,7.83
2023-02-07T15:13:41.781Z,7.38
2023-02-07T15:16:31.537Z,7.50
2023-02-07T15:19:02.193Z,7.71
2023-02-07T15:21:51.585Z,7.29
2023-02-07T15:24:39.840Z,7.65
2023-02-07T15:27:24.877Z,7.42
2023-02-07T15:30:00.418Z,7.28
2023-02-07T15:32:35.988Z,7.50
2023-02-07T15:35:19.329Z,7.37
2023-02-07T15:37:47.510Z,7.48
2023-02-07T15:40:23.491Z,7.33
2023-02-07T15:42:58.355Z,7.25
2023-02-07T15:45:26.703Z,7.33
2023-02-07T15:47:57.801Z,7.12
2023-02-07T15:50:25.798Z,7.27
2023-02-07T15:52:54.317Z,7.26
2023-02-07T15:55:41.419Z,7.25
2023-02-07T15:58:09.412Z,7.13
2023-02-07T16:00:41.575Z,7.15
2023-02-07T16:03:14.360Z,6.93
2023-02-07T16:05:42.036Z,6.87
2023-02-07T16:08:28.829Z,6.72
2023-02-07T16:11:10.834Z,6.77
2023-02-07T16:13:43.997Z,6.97
2023-02-07T16:16:21.654Z,6.91
2023-02-07T16:18:48.734Z,6.64
2023-02-07T16:21:25.040Z,6.68
2023-02-07T16:23:53.314Z,6.64
2023-02-07T16:26:21.998Z,6.54
2023-02-07T16:28:50.716Z,6.68
2023-02-07T16:31:17.935Z,6.61
2023-02-07T16:33:44.816Z,6.21
2023-02-07T16:36:16.888Z,5.94
2023-02-07T16:38:45.243Z,5.85
2023-02-07T16:41:32.636Z,5.84
2023-02-07T16:44:01.259Z,5.77
2023-02-07T16:46:31.770Z,5.65
2023-02-07T16:48:59.235Z,5.67
2023-02-07T16:51:25.797Z,5.62
2023-02-07T16:53:53.977Z,5.54
2023-02-07T16:56:29.587Z,5.49
2023-02-07T16:58:57.034Z,5.41
2023-02-07T17:01:23.731Z,5.54
2023-02-07T17:03:51.237Z,5.46
2023-02-07T17:06:20.527Z,5.39
2023-02-07T17:08:49.056Z,5.39
2023-02-07T17:11:27.500Z,5.27
2023-02-07T17:13:56.431Z,5.23
2023-02-07T17:16:26.388Z,5.33
2023-02-07T17:18:53.512Z,5.25
2023-02-07T17:21:22.438Z,5.20
2023-02-07T17:23:49.361Z,5.11
2023-02-07T17:26:25.489Z,5.24
2023-02-07T17:28:54.163Z,5.15
2023-02-07T17:31:22.613Z,5.06
2023-02-07T17:33:50.568Z,5.14
2023-02-07T17:36:19.245Z,5.07
2023-02-07T17:38:47.271Z,5.04
2023-02-07T17:41:15.171Z,4.85
2023-02-07T17:43:46.006Z,4.75
2023-02-07T17:46:33.984Z,4.83
2023-02-07T17:49:01.712Z,4.82
2023-02-07T17:51:28.750Z,4.75
2023-02-07T17:53:56.079Z,4.74
2023-02-07T17:56:30.827Z,4.80
2023-02-07T17:59:00.521Z,4.73
2023-02-07T18:01:29.474Z,4.75
2023-02-07T18:03:56.857Z,4.86
2023-02-07T18:06:25.496Z,4.69
2023-02-07T18:08:57.173Z,4.70
2023-02-07T18:11:24.133Z,4.66
2023-02-07T18:13:50.565Z,4.65
2023-02-07T18:16:24.849Z,4.70
2023-02-07T18:18:54.553Z,4.70
2023-02-07T18:21:21.342Z,4.49
2023-02-07T18:23:47.828Z,4.50
2023-02-07T18:26:15.710Z,4.50
2023-02-07T18:28:43.429Z,4.46
2023-02-07T18:31:20.900Z,4.52
2023-02-07T18:33:48.725Z,4.43
2023-02-07T18:36:15.742Z,4.58
2023-02-07T18:38:49.869Z,4.37
2023-02-07T18:41:21.740Z,4.32
2023-02-07T18:43:51.386Z,4.34
2023-02-07T18:46:19.421Z,4.55
2023-02-07T18:48:51.552Z,4.53
2023-02-07T18:51:21.791Z,4.47
2023-02-07T18:53:50.207Z,4.49
2023-02-07T18:56:21.922Z,4.48
2023-02-07T18:58:53.116Z,4.46
2023-02-07T19:01:22.331Z,4.48
2023-02-07T19:03:58.780Z,4.38
2023-02-07T19:06:28.857Z,4.40
2023-02-07T19:08:55.512Z,4.37
2023-02-07T19:11:23.104Z,4.29
2023-02-07T19:13:50.818Z,4.20
2023-02-07T19:16:19.044Z,4.30
2023-02-07T19:18:48.036Z,4.08
2023-02-07T19:21:26.722Z,4.10
2023-02-07T19:23:55.787Z,4.15
2023-02-07T19:26:25.012Z,4.17
2023-02-07T19:28:53.093Z,4.01
2023-02-07T19:31:21.290Z,3.84
2023-02-07T19:33:51.852Z,3.83
2023-02-07T19:36:19.078Z,3.88
2023-02-07T19:38:48.623Z,3.97
2023-02-07T19:41:30.853Z,3.86
2023-02-07T19:43:58.561Z,3.83
2023-02-07T19:46:27.706Z,3.90
2023-02-07T19:48:54.952Z,3.83
2023-02-07T19:51:23.048Z,3.89
2023-02-07T19:53:51.417Z,3.79
2023-02-07T19:56:19.622Z,3.77
2023-02-07T19:58:47.537Z,3.69
2023-02-07T20:01:15.677Z,3.77
2023-02-07T20:03:43.920Z,3.79
2023-02-07T20:06:12.628Z,3.80
2023-02-07T20:08:42.478Z,3.76
2023-02-07T20:11:11.820Z,3.69
2023-02-07T20:13:39.060Z,3.56
2023-02-07T20:16:18.161Z,3.38
2023-02-07T20:18:44.637Z,3.50
2023-02-07T20:21:13.893Z,3.40
2023-02-07T20:23:44.250Z,3.42
2023-02-07T20:26:12.529Z,3.42
2023-02-07T20:28:41.935Z,3.38
2023-02-07T20:31:10.839Z,3.44
2023-02-07T20:33:38.653Z,3.40
2023-02-07T20:36:07.095Z,3.36
2023-02-07T20:38:34.367Z,3.27
2023-02-07T20:41:17.052Z,3.21
2023-02-07T20:43:45.117Z,3.23
2023-02-07T20:46:14.591Z,3.37
2023-02-07T20:48:41.409Z,3.38
2023-02-07T20:51:11.983Z,3.45
2023-02-07T20:53:45.960Z,3.45
2023-02-07T20:56:13.959Z,3.51
2023-02-07T20:58:40.608Z,3.40
2023-02-07T21:01:12.230Z,3.27
2023-02-07T21:03:41.484Z,3.30
2023-02-07T21:06:08.641Z,3.30
2023-02-07T21:08:36.083Z,3.43
2023-02-07T21:11:03.063Z,3.28
2023-02-07T21:13:30.301Z,3.31
2023-02-07T21:16:03.240Z,3.43
2023-02-07T21:18:30.213Z,3.35
2023-02-07T21:20:57.590Z,3.31
2023-02-07T21:23:25.113Z,3.38
2023-02-07T21:25:56.273Z,3.22
2023-02-07T21:28:23.813Z,3.21
2023-02-07T21:30:51.699Z,3.34
2023-02-07T21:33:18.642Z,3.06
2023-02-07T21:35:45.663Z,2.79
2023-02-07T21:38:12.241Z,2.93
2023-02-07T21:40:39.404Z,2.96
2023-02-07T21:43:06.324Z,2.87
2023-02-07T21:45:32.815Z,2.74
2023-02-07T21:48:00.341Z,2.85
2023-02-07T21:50:27.437Z,3.06
2023-02-07T21:52:54.196Z,2.95
2023-02-07T21:55:22.149Z,2.95
2023-02-07T21:57:48.786Z,2.79
2023-02-07T22:00:15.452Z,2.63
2023-02-07T22:02:44.129Z,2.65
2023-02-07T22:05:12.013Z,2.78
2023-02-07T22:07:39.102Z,2.70
2023-02-07T22:10:06.172Z,2.59
2023-02-07T22:12:32.837Z,2.53
2023-02-07T22:15:00.839Z,2.50
2023-02-07T22:17:28.193Z,2.52
2023-02-07T22:19:55.043Z,2.45
2023-02-07T22:22:22.903Z,2.44
2023-02-07T22:24:50.369Z,2.49
2023-02-07T22:27:16.657Z,2.26
2023-02-07T22:29:43.448Z,2.28
2023-02-07T22:32:10.161Z,2.29
2023-02-07T22:34:37.365Z,2.36
2023-02-07T22:37:05.458Z,2.35
2023-02-07T22:39:33.482Z,2.19
2023-02-07T22:41:59.793Z,2.31
2023-02-07T22:44:26.602Z,2.36
2023-02-07T22:46:53.259Z,2.33
2023-02-07T22:49:19.798Z,2.32
2023-02-07T22:51:50.422Z,2.27
2023-02-07T22:54:19.678Z,2.20
2023-02-07T22:56:46.423Z,2.31
2023-02-07T22:59:14.016Z,2.17
2023-02-07T23:01:43.640Z,2.20
2023-02-07T23:04:15.435Z,1.04
2023-02-07T23:06:43.615Z,2.27
2023-02-07T23:09:10.324Z,2.29
2023-02-07T23:11:37.317Z,2.32
2023-02-07T23:14:05.350Z,2.28
2023-02-07T23:16:33.793Z,2.24
2023-02-07T23:19:06.789Z,2.37
2023-02-07T23:21:33.480Z,2.49
2023-02-07T23:24:00.471Z,2.55
2023-02-07T23:26:27.335Z,2.58
2023-02-07T23:28:54.126Z,2.46
2023-02-07T23:31:22.755Z,2.39
2023-02-07T23:33:49.478Z,2.26
2023-02-07T23:36:17.793Z,2.22
2023-02-07T23:38:46.323Z,2.29
2023-02-07T23:41:12.920Z,2.26
2023-02-07T23:43:39.913Z,2.40
2023-02-07T23:46:07.990Z,2.27
2023-02-07T23:48:37.755Z,2.29
2023-02-07T23:51:05.784Z,2.22
2023-02-07T23:53:33.751Z,2.13
2023-02-07T23:56:01.616Z,2.04
2023-02-07T23:58:28.260Z,1.99
